Time;durP1;ratioP1;P1;durP2;ratioP2;P2;SDS_P1;SDS_P2;PMS_P1;PMS_P2;Temp;Humidity;BMP_temperature;BMP_pressure;BME280_temperature;BME280_humidity;BME280_pressure;Samples;Min_cycle;Max_cycle;Signal;HPM_P1;HPM_P2
2023/10/27 00:00:50;;;;;;;;;;;;;;;;;;5119515;28;19967;-54
2023/10/27 00:03:16;;;;;;;;;;;;;;;;;;5117755;28;19935;-56
2023/10/27 00:05:41;;;;;;;;;;;;;;;;;;5124529;28;19916;-57
2023/10/27 00:08:06;;;;;;;;;;;;;;;;;;5117735;28;19924;-56
2023/10/27 00:10:31;;;;;;;;;;;;;;;;;;5112150;28;19912;-54
2023/10/27 00:12:57;;;;;;;;;;;;;;;;;;5120198;28;19919;-55
2023/10/27 00:15:22;;;;;;;;;;;;;;;;;;5121627;28;19916;-54
2023/10/27 00:17:47;;;;;;;;;;;;;;;;;;5117253;28;19962;-57
2023/10/27 00:20:13;;;;;;;;;;;;;;;;;;5117121;28;19916;-54
2023/10/27 00:22:38;;;;;;;;;;;;;;;;;;5121181;28;19919;-57
2023/10/27 00:25:03;;;;;;;;;;;;;;;;;;5126273;28;19938;-56
2023/10/27 00:27:28;;;;;;;;;;;;;;;;;;5103365;28;19992;-51
2023/10/27 00:29:54;;;;;;;;;;;;;;;;;;5116506;28;19970;-52
2023/10/27 00:32:20;;;;;;;;;;;;;;;;;;5116999;28;19919;-57
2023/10/27 00:34:45;;;;;;;;;;;;;;;;;;5116435;28;19912;-55
2023/10/27 00:37:11;;;;;;;;;;;;;;;;;;5129477;28;19912;-54
2023/10/27 00:39:36;;;;;;;;;;;;;;;;;;5116363;28;20007;-54
2023/10/27 00:42:02;;;;;;;;;;;;;;;;;;5107529;28;19920;-55
2023/10/27 00:44:27;;;;;;;;;;;;;;;;;;5117094;28;19918;-57
2023/10/27 00:46:52;;;;;;;;;;;;;;;;;;5115576;28;19912;-55
2023/10/27 00:49:18;;;;;;;;;;;;;;;;;;5115905;28;19927;-56
2023/10/27 00:51:46;;;;;;;;;;;;;;;;;;5116698;28;19983;-55
2023/10/27 00:54:12;;;;;;;;;;;;;;;;;;5116769;28;19919;-55
2023/10/27 00:56:37;;;;;;;;;;;;;;;;;;5122314;28;19912;-54
2023/10/27 00:59:03;;;;;;;;;;;;;;;;;;5116607;28;19975;-55
2023/10/27 01:01:28;;;;;;;;;;;;;;;;;;5120630;28;19926;-56
2023/10/27 01:03:55;;;;;;;;;;;;;;;;;;5136621;28;19955;-54
2023/10/27 01:06:20;;;;;;;;;;;;;;;;;;5118634;28;20297;-56
2023/10/27 01:08:46;;;;;;;;;;;;;;;;;;5115732;28;19916;-56
2023/10/27 01:11:12;;;;;;;;;;;;;;;;;;5115309;28;19912;-54
2023/10/27 01:13:37;;;;;;;;;;;;;;;;;;5116256;28;19935;-54
2023/10/27 01:16:03;;;;;;;;;;;;;;;;;;5115237;28;19934;-55
2023/10/27 01:18:28;;;;;;;;;;;;;;;;;;5116267;28;19927;-54
2023/10/27 01:20:53;;;;;;;;;;;;;;;;;;5115460;28;19944;-57
2023/10/27 01:23:18;;;;;;;;;;;;;;;;;;5122078;28;19943;-57
2023/10/27 01:25:44;;;;;;;;;;;;;;;;;;5118370;28;19935;-56
2023/10/27 01:28:09;;;;;;;;;;;;;;;;;;5123425;28;19916;-56
2023/10/27 01:30:35;;;;;;;;;;;;;;;;;;5115306;28;19991;-54
2023/10/27 01:33:01;;;;;;;;;;;;;;;;;;5116853;28;19983;-55
2023/10/27 01:35:26;;;;;;;;;;;;;;;;;;5115858;28;19923;-57
2023/10/27 01:37:51;;;;;;;;;;;;;;;;;;5122122;28;19934;-53
2023/10/27 01:40:17;;;;;;;;;;;;;;;;;;5115723;28;19996;-54
2023/10/27 01:42:43;;;;;;;;;;;;;;;;;;5116072;28;19912;-54
2023/10/27 01:45:08;;;;;;;;;;;;;;;;;;5115127;28;19933;-57
2023/10/27 01:47:34;;;;;;;;;;;;;;;;;;5119583;28;19933;-55
2023/10/27 01:49:59;;;;;;;;;;;;;;;;;;5115674;28;19947;-56
2023/10/27 01:52:25;;;;;;;;;;;;;;;;;;5114869;28;19947;-55
2023/10/27 01:54:51;;;;;;;;;;;;;;;;;;5115611;28;19912;-56
2023/10/27 01:57:16;;;;;;;;;;;;;;;;;;5115245;28;19912;-57
2023/10/27 01:59:42;;;;;;;;;;;;;;;;;;5114458;28;19913;-55
2023/10/27 02:02:07;;;;;;;;;;;;;;;;;;5114789;28;19916;-53
2023/10/27 02:04:33;;;;;;;;;;;;;;;;;;5114404;28;19912;-56
2023/10/27 02:06:58;;;;;;;;;;;;;;;;;;5124924;28;19912;-55
2023/10/27 02:09:24;;;;;;;;;;;;;;;;;;5117012;28;19920;-55
2023/10/27 02:11:49;;;;;;;;;;;;;;;;;;5114561;28;19930;-55
2023/10/27 02:14:14;;;;;;;;;;;;;;;;;;5119903;28;19922;-55
2023/10/27 02:16:40;;;;;;;;;;;;;;;;;;5121301;28;19911;-54
2023/10/27 02:19:06;;;;;;;;;;;;;;;;;;5117317;27;19912;-54
2023/10/27 02:21:32;;;;;;;;;;;;;;;;;;5115419;28;19922;-56
2023/10/27 02:23:57;;;;;;;;;;;;;;;;;;5114127;28;19920;-57
2023/10/27 02:26:22;;;;;;;;;;;;;;;;;;5116699;28;19912;-55
2023/10/27 02:28:48;;;;;;;;;;;;;;;;;;5116967;28;19962;-55
2023/10/27 02:31:13;;;;;;;;;;;;;;;;;;5114209;28;19952;-56
2023/10/27 02:33:39;;;;;;;;;;;;;;;;;;5114795;28;19920;-55
2023/10/27 02:36:05;;;;;;;;;;;;;;;;;;5114424;28;19920;-56
2023/10/27 02:38:30;;;;;;;;;;;;;;;;;;5116711;28;19912;-57
2023/10/27 02:40:56;;;;;;;;;;;;;;;;;;5114211;28;19923;-54
2023/10/27 02:43:21;;;;;;;;;;;;;;;;;;5113970;28;19919;-54
2023/10/27 02:45:47;;;;;;;;;;;;;;;;;;5115029;28;19912;-55
2023/10/27 02:48:12;;;;;;;;;;;;;;;;;;5125748;28;19990;-57
2023/10/27 02:50:38;;;;;;;;;;;;;;;;;;5114294;28;19934;-57
2023/10/27 02:53:03;;;;;;;;;;;;;;;;;;5117921;28;19919;-55
2023/10/27 02:55:29;;;;;;;;;;;;;;;;;;5113977;28;19951;-54
2023/10/27 02:57:55;;;;;;;;;;;;;;;;;;5122817;28;19916;-57
2023/10/27 03:00:20;;;;;;;;;;;;;;;;;;5113954;28;19912;-54
2023/10/27 03:02:45;;;;;;;;;;;;;;;;;;5114051;28;19934;-56
2023/10/27 03:05:11;;;;;;;;;;;;;;;;;;5114745;28;19912;-56
2023/10/27 03:07:37;;;;;;;;;;;;;;;;;;5118865;28;20018;-56
2023/10/27 03:10:02;;;;;;;;;;;;;;;;;;5115930;28;19908;-58
2023/10/27 03:12:28;;;;;;;;;;;;;;;;;;5117804;28;19960;-57
2023/10/27 03:14:53;;;;;;;;;;;;;;;;;;5118137;28;19934;-57
2023/10/27 03:17:19;;;;;;;;;;;;;;;;;;5118593;28;19912;-58
2023/10/27 03:19:44;;;;;;;;;;;;;;;;;;5118881;28;19916;-57
2023/10/27 03:22:09;;;;;;;;;;;;;;;;;;5118503;28;19931;-56
2023/10/27 03:24:35;;;;;;;;;;;;;;;;;;5117554;28;19983;-57
2023/10/27 03:27:01;;;;;;;;;;;;;;;;;;5119631;28;19920;-56
2023/10/27 03:29:27;;;;;;;;;;;;;;;;;;5128918;28;19927;-57
2023/10/27 03:31:52;;;;;;;;;;;;;;;;;;5117233;28;19916;-57
2023/10/27 03:34:17;;;;;;;;;;;;;;;;;;5120357;28;19912;-57
2023/10/27 03:36:42;;;;;;;;;;;;;;;;;;5122190;28;19962;-57
2023/10/27 03:39:08;;;;;;;;;;;;;;;;;;5127946;28;20001;-58
2023/10/27 03:41:33;;;;;;;;;;;;;;;;;;5117702;28;19923;-58
2023/10/27 03:43:59;;;;;;;;;;;;;;;;;;5119106;28;19919;-58
2023/10/27 03:46:25;;;;;;;;;;;;;;;;;;5117027;28;19923;-58
2023/10/27 03:48:50;;;;;;;;;;;;;;;;;;5124692;28;19922;-56
2023/10/27 03:51:16;;;;;;;;;;;;;;;;;;5131363;28;19941;-59
2023/10/27 03:53:42;;;;;;;;;;;;;;;;;;5117891;28;19919;-56
2023/10/27 03:56:07;;;;;;;;;;;;;;;;;;5131289;28;19923;-56
2023/10/27 03:58:32;;;;;;;;;;;;;;;;;;5120882;28;19912;-55
2023/10/27 04:00:58;;;;;;;;;;;;;;;;;;5117437;28;19919;-56
2023/10/27 04:03:24;;;;;;;;;;;;;;;;;;5121579;28;19922;-54
2023/10/27 04:05:49;;;;;;;;;;;;;;;;;;5121663;28;19981;-55
2023/10/27 04:08:14;;;;;;;;;;;;;;;;;;5117864;28;19920;-55
2023/10/27 04:10:40;;;;;;;;;;;;;;;;;;5117663;28;20006;-55
2023/10/27 04:13:09;;;;;;;;;;;;;;;;;;5117637;28;19912;-56
2023/10/27 04:15:34;;;;;;;;;;;;;;;;;;5123974;28;19918;-54
2023/10/27 04:18:00;;;;;;;;;;;;;;;;;;5117741;28;19912;-57
2023/10/27 04:20:25;;;;;;;;;;;;;;;;;;5117168;28;19916;-55
2023/10/27 04:22:51;;;;;;;;;;;;;;;;;;5117247;28;19968;-55
2023/10/27 04:25:16;;;;;;;;;;;;;;;;;;5115489;28;19991;-54
2023/10/27 04:27:42;;;;;;;;;;;;;;;;;;5118885;28;19920;-56
2023/10/27 04:30:07;;;;;;;;;;;;;;;;;;5121837;28;19923;-56
2023/10/27 04:32:33;;;;;;;;;;;;;;;;;;5117080;28;19912;-56
2023/10/27 04:34:58;;;;;;;;;;;;;;;;;;5128670;28;19927;-57
2023/10/27 04:37:24;;;;;;;;;;;;;;;;;;5116191;28;19912;-56
2023/10/27 04:39:50;;;;;;;;;;;;;;;;;;5119870;28;19934;-58
2023/10/27 04:42:15;;;;;;;;;;;;;;;;;;5117036;28;19930;-57
2023/10/27 04:44:41;;;;;;;;;;;;;;;;;;5116221;28;19912;-56
2023/10/27 04:47:06;;;;;;;;;;;;;;;;;;5117018;28;19912;-56
2023/10/27 04:49:32;;;;;;;;;;;;;;;;;;5129425;28;19923;-56
2023/10/27 04:51:57;;;;;;;;;;;;;;;;;;5116900;28;19912;-57
2023/10/27 04:54:22;;;;;;;;;;;;;;;;;;5121082;28;19918;-55
2023/10/27 04:56:47;;;;;;;;;;;;;;;;;;5122180;28;19912;-55
2023/10/27 04:59:13;;;;;;;;;;;;;;;;;;5126189;28;19976;-57
2023/10/27 05:01:38;;;;;;;;;;;;;;;;;;5116815;28;19935;-57
2023/10/27 05:04:04;;;;;;;;;;;;;;;;;;5116448;28;19912;-58
2023/10/27 05:06:30;;;;;;;;;;;;;;;;;;5116378;28;19941;-57
2023/10/27 05:08:56;;;;;;;;;;;;;;;;;;5122275;28;19922;-56
2023/10/27 05:11:22;;;;;;;;;;;;;;;;;;5116251;28;19912;-55
2023/10/27 05:13:47;;;;;;;;;;;;;;;;;;5116515;28;19911;-61
2023/10/27 05:16:13;;;;;;;;;;;;;;;;;;5116636;28;19990;-61
2023/10/27 05:18:38;;;;;;;;;;;;;;;;;;5120436;28;19919;-62
2023/10/27 05:21:04;;;;;;;;;;;;;;;;;;5115707;28;19922;-61
2023/10/27 05:23:29;;;;;;;;;;;;;;;;;;5116218;28;19927;-61
2023/10/27 05:25:55;;;;;;;;;;;;;;;;;;5125682;28;19958;-62
2023/10/27 05:28:20;;;;;;;;;;;;;;;;;;5117267;28;19952;-61
2023/10/27 05:30:46;;;;;;;;;;;;;;;;;;5116530;28;19919;-60
2023/10/27 05:33:12;;;;;;;;;;;;;;;;;;5115286;28;19918;-60
2023/10/27 05:35:37;;;;;;;;;;;;;;;;;;5116016;28;19975;-62
2023/10/27 05:38:03;;;;;;;;;;;;;;;;;;5115906;28;19916;-62
2023/10/27 05:40:31;;;;;;;;;;;;;;;;;;5127036;28;19980;-62
2023/10/27 05:42:57;;;;;;;;;;;;;;;;;;5115957;28;19940;-62
2023/10/27 05:45:22;;;;;;;;;;;;;;;;;;5115918;28;19912;-61
2023/10/27 05:47:48;;;;;;;;;;;;;;;;;;5115782;28;19934;-60
2023/10/27 05:50:13;;;;;;;;;;;;;;;;;;5124456;28;19919;-59
2023/10/27 05:52:39;;;;;;;;;;;;;;;;;;5122461;28;19979;-59
2023/10/27 05:55:05;;;;;;;;;;;;;;;;;;5116063;28;19948;-59
2023/10/27 05:57:30;;;;;;;;;;;;;;;;;;5115587;28;19938;-61
2023/10/27 05:59:55;;;;;;;;;;;;;;;;;;5119739;28;19962;-61
2023/10/27 06:02:21;;;;;;;;;;;;;;;;;;5115576;28;19915;-58
2023/10/27 06:04:46;;;;;;;;;;;;;;;;;;5115745;28;19912;-61
2023/10/27 06:07:15;;;;;;;;;;;;;;;;;;5115494;28;19926;-60
2023/10/27 06:09:40;;;;;;;;;;;;;;;;;;5116726;28;19916;-57
2023/10/27 06:12:06;;;;;;;;;;;;;;;;;;5115425;28;19913;-59
2023/10/27 06:14:31;;;;;;;;;;;;;;;;;;5115953;28;19942;-62
2023/10/27 06:16:56;;;;;;;;;;;;;;;;;;5121370;28;19944;-62
2023/10/27 06:19:23;;;;;;;;;;;;;;;;;;5120950;28;19952;-62
2023/10/27 06:21:49;;;;;;;;;;;;;;;;;;5121801;28;19942;-62
2023/10/27 06:24:15;;;;;;;;;;;;;;;;;;5115495;28;19916;-62
2023/10/27 06:26:40;;;;;;;;;;;;;;;;;;5118815;28;19912;-60
2023/10/27 06:29:06;;;;;;;;;;;;;;;;;;5117819;28;19947;-61
2023/10/27 06:31:31;;;;;;;;;;;;;;;;;;5121324;28;19934;-58
2023/10/27 06:33:57;;;;;;;;;;;;;;;;;;5101993;28;19919;-61
2023/10/27 06:36:22;;;;;;;;;;;;;;;;;;5117117;28;19912;-60
2023/10/27 06:38:48;;;;;;;;;;;;;;;;;;5115251;28;19913;-58
2023/10/27 06:41:13;;;;;;;;;;;;;;;;;;5120727;28;19955;-60
2023/10/27 06:43:39;;;;;;;;;;;;;;;;;;5103450;28;19918;-62
2023/10/27 06:46:04;;;;;;;;;;;;;;;;;;5130104;28;19955;-60
2023/10/27 06:48:30;;;;;;;;;;;;;;;;;;5124926;28;19916;-61
2023/10/27 06:50:55;;;;;;;;;;;;;;;;;;5125728;28;19912;-59
2023/10/27 06:53:21;;;;;;;;;;;;;;;;;;5119060;28;19916;-61
2023/10/27 06:55:47;;;;;;;;;;;;;;;;;;5126753;28;19945;-60
2023/10/27 06:58:12;;;;;;;;;;;;;;;;;;5124074;28;19962;-58
2023/10/27 07:00:38;;;;;;;;;;;;;;;;;;5132107;28;19918;-60
2023/10/27 07:03:03;;;;;;;;;;;;;;;;;;5118650;28;19971;-62
2023/10/27 07:05:29;;;;;;;;;;;;;;;;;;5118638;28;19935;-59
2023/10/27 07:07:54;;;;;;;;;;;;;;;;;;5112172;28;19923;-60
2023/10/27 07:10:20;;;;;;;;;;;;;;;;;;5112259;28;19965;-58
2023/10/27 07:12:45;;;;;;;;;;;;;;;;;;5118920;28;19920;-59
2023/10/27 07:15:11;;;;;;;;;;;;;;;;;;5118551;28;19916;-57
2023/10/27 07:17:37;;;;;;;;;;;;;;;;;;5119970;28;19912;-62
2023/10/27 07:20:03;;;;;;;;;;;;;;;;;;5118587;28;19912;-58
2023/10/27 07:22:28;;;;;;;;;;;;;;;;;;5117180;28;19923;-61
2023/10/27 07:24:53;;;;;;;;;;;;;;;;;;5111317;28;19918;-61
2023/10/27 07:27:19;;;;;;;;;;;;;;;;;;5118368;28;19931;-57
2023/10/27 07:29:46;;;;;;;;;;;;;;;;;;5118285;28;19950;-59
2023/10/27 07:32:12;;;;;;;;;;;;;;;;;;5118187;28;19912;-59
2023/10/27 07:34:38;;;;;;;;;;;;;;;;;;5118571;28;19908;-60
2023/10/27 07:37:06;;;;;;;;;;;;;;;;;;5127047;28;19919;-61
2023/10/27 07:39:31;;;;;;;;;;;;;;;;;;5117850;28;19916;-53
2023/10/27 07:41:57;;;;;;;;;;;;;;;;;;5118626;28;19923;-59
2023/10/27 07:44:23;;;;;;;;;;;;;;;;;;5118156;28;19916;-61
2023/10/27 07:46:48;;;;;;;;;;;;;;;;;;5123900;28;19975;-56
2023/10/27 07:49:14;;;;;;;;;;;;;;;;;;5117996;28;19915;-60
2023/10/27 07:51:40;;;;;;;;;;;;;;;;;;5128563;28;19943;-59
2023/10/27 07:54:06;;;;;;;;;;;;;;;;;;5118205;28;19923;-61
2023/10/27 07:56:32;;;;;;;;;;;;;;;;;;5117311;28;19916;-60
2023/10/27 07:58:58;;;;;;;;;;;;;;;;;;5121859;28;19900;-60
2023/10/27 08:01:24;;;;;;;;;;;;;;;;;;5117859;28;19987;-59
2023/10/27 08:03:50;;;;;;;;;;;;;;;;;;5118023;28;19912;-60
2023/10/27 08:06:16;;;;;;;;;;;;;;;;;;5117929;28;19934;-58
2023/10/27 08:08:41;;;;;;;;;;;;;;;;;;5117706;28;19916;-59
2023/10/27 08:11:07;;;;;;;;;;;;;;;;;;5121480;28;19934;-60
2023/10/27 08:13:32;;;;;;;;;;;;;;;;;;5116577;28;19922;-59
2023/10/27 08:15:58;;;;;;;;;;;;;;;;;;5119164;28;19912;-60
2023/10/27 08:18:23;;;;;;;;;;;;;;;;;;5134268;28;19911;-59
2023/10/27 08:20:50;;;;;;;;;;;;;;;;;;5119946;28;19919;-59
2023/10/27 08:23:15;;;;;;;;;;;;;;;;;;5117662;28;19912;-60
2023/10/27 08:25:41;;;;;;;;;;;;;;;;;;5117276;28;19962;-61
2023/10/27 08:28:08;;;;;;;;;;;;;;;;;;5112687;28;19916;-61
2023/10/27 08:30:33;;;;;;;;;;;;;;;;;;5119401;28;19912;-61
2023/10/27 08:32:59;;;;;;;;;;;;;;;;;;5125219;28;20424;-60
2023/10/27 08:35:24;;;;;;;;;;;;;;;;;;5117150;28;20074;-61
2023/10/27 08:37:50;;;;;;;;;;;;;;;;;;5124576;28;19951;-58
2023/10/27 08:40:15;;;;;;;;;;;;;;;;;;5117718;28;19950;-60
2023/10/27 08:42:42;;;;;;;;;;;;;;;;;;5125627;28;19912;-57
2023/10/27 08:45:08;;;;;;;;;;;;;;;;;;5117124;28;19920;-58
2023/10/27 08:47:34;;;;;;;;;;;;;;;;;;5116884;28;19912;-61
2023/10/27 08:50:00;;;;;;;;;;;;;;;;;;5116520;28;19912;-59
2023/10/27 08:52:26;;;;;;;;;;;;;;;;;;5123219;28;19982;-61
2023/10/27 08:54:51;;;;;;;;;;;;;;;;;;5116994;28;19912;-62
2023/10/27 08:57:16;;;;;;;;;;;;;;;;;;5116519;28;19908;-60
2023/10/27 08:59:43;;;;;;;;;;;;;;;;;;5128577;28;19938;-60
2023/10/27 09:02:09;;;;;;;;;;;;;;;;;;5117001;28;19934;-61
2023/10/27 09:04:35;;;;;;;;;;;;;;;;;;5116058;28;19916;-58
2023/10/27 09:07:00;;;;;;;;;;;;;;;;;;5115819;28;19912;-62
2023/10/27 09:09:26;;;;;;;;;;;;;;;;;;5116349;28;19920;-61
2023/10/27 09:11:51;;;;;;;;;;;;;;;;;;5116884;28;19943;-59
2023/10/27 09:14:20;;;;;;;;;;;;;;;;;;5116519;28;19919;-61
2023/10/27 09:16:45;;;;;;;;;;;;;;;;;;5121667;28;19922;-61
2023/10/27 09:19:10;;;;;;;;;;;;;;;;;;5116484;28;19912;-61
2023/10/27 09:21:36;;;;;;;;;;;;;;;;;;5127018;28;19912;-59
2023/10/27 09:24:01;;;;;;;;;;;;;;;;;;5117783;28;19912;-61
2023/10/27 09:26:30;;;;;;;;;;;;;;;;;;5116216;28;19912;-60
2023/10/27 09:28:55;;;;;;;;;;;;;;;;;;5116109;28;19920;-61
2023/10/27 09:31:21;;;;;;;;;;;;;;;;;;5123617;28;19926;-60
2023/10/27 09:33:46;;;;;;;;;;;;;;;;;;5116965;28;19939;-59
2023/10/27 09:36:12;;;;;;;;;;;;;;;;;;5116175;28;19912;-58
2023/10/27 09:38:39;;;;;;;;;;;;;;;;;;5117360;28;19908;-61
2023/10/27 09:41:06;;;;;;;;;;;;;;;;;;5121397;28;19950;-61
2023/10/27 09:43:31;;;;;;;;;;;;;;;;;;5116722;28;19916;-60
2023/10/27 09:45:57;;;;;;;;;;;;;;;;;;5116085;28;19912;-62
2023/10/27 09:48:23;;;;;;;;;;;;;;;;;;5125970;28;19943;-61
2023/10/27 09:50:49;;;;;;;;;;;;;;;;;;5118613;28;19922;-58
2023/10/27 09:53:14;;;;;;;;;;;;;;;;;;5115967;28;19912;-59
2023/10/27 09:55:39;;;;;;;;;;;;;;;;;;5115794;28;19908;-61
2023/10/27 09:58:06;;;;;;;;;;;;;;;;;;5115891;28;19912;-61
2023/10/27 10:00:34;;;;;;;;;;;;;;;;;;5116061;28;19912;-60
2023/10/27 10:03:00;;;;;;;;;;;;;;;;;;5116577;28;19912;-60
2023/10/27 10:05:26;;;;;;;;;;;;;;;;;;5115591;28;19958;-61
2023/10/27 10:07:56;;;;;;;;;;;;;;;;;;5120466;28;19916;-59
2023/10/27 10:10:44;;;;;;;;;;;;;;;;;;5129382;28;19919;-61
2023/10/27 10:13:08;;;;;;;;;;;;;;;;;;5125170;28;19915;-61
2023/10/27 10:15:33;;;;;;;;;;;;;;;;;;5115323;28;19912;-60
2023/10/27 10:17:59;;;;;;;;;;;;;;;;;;5114081;28;19908;-59
2023/10/27 10:20:24;;;;;;;;;;;;;;;;;;5115205;28;19912;-60
2023/10/27 10:22:51;;;;;;;;;;;;;;;;;;5124885;28;19913;-60
2023/10/27 10:25:17;;;;;;;;;;;;;;;;;;5106050;28;19912;-61
2023/10/27 10:27:42;;;;;;;;;;;;;;;;;;5115289;28;19994;-60
2023/10/27 10:30:08;;;;;;;;;;;;;;;;;;5115655;28;19916;-61
2023/10/27 10:32:33;;;;;;;;;;;;;;;;;;5121914;28;19976;-60
2023/10/27 10:34:59;;;;;;;;;;;;;;;;;;5115111;28;19934;-60
2023/10/27 10:37:25;;;;;;;;;;;;;;;;;;5115145;28;19975;-60
2023/10/27 10:39:50;;;;;;;;;;;;;;;;;;5115035;28;19912;-61
2023/10/27 10:42:16;;;;;;;;;;;;;;;;;;5118635;28;19920;-59
2023/10/27 10:44:41;;;;;;;;;;;;;;;;;;5115217;28;19973;-57
2023/10/27 10:47:07;;;;;;;;;;;;;;;;;;5115270;28;19920;-62
2023/10/27 10:49:33;;;;;;;;;;;;;;;;;;5124376;28;19915;-61
2023/10/27 10:51:58;;;;;;;;;;;;;;;;;;5115677;28;19920;-61
2023/10/27 10:54:25;;;;;;;;;;;;;;;;;;5115036;28;19923;-61
2023/10/27 10:56:50;;;;;;;;;;;;;;;;;;5114584;28;19912;-55
2023/10/27 10:59:15;;;;;;;;;;;;;;;;;;5114553;28;19934;-55
2023/10/27 11:01:41;;;;;;;;;;;;;;;;;;5121382;28;19911;-57
2023/10/27 11:04:07;;;;;;;;;;;;;;;;;;5119550;28;19912;-56
2023/10/27 11:06:33;;;;;;;;;;;;;;;;;;5114654;28;19981;-55
2023/10/27 11:08:58;;;;;;;;;;;;;;;;;;5118827;28;19923;-56
2023/10/27 11:11:23;;;;;;;;;;;;;;;;;;5118420;28;19912;-56
2023/10/27 11:13:52;;;;;;;;;;;;;;;;;;5119735;28;19912;-53
2023/10/27 11:16:18;;;;;;;;;;;;;;;;;;5114737;28;19912;-54
2023/10/27 11:18:44;;;;;;;;;;;;;;;;;;5114382;28;19918;-57
2023/10/27 11:21:10;;;;;;;;;;;;;;;;;;5114707;28;19912;-55
2023/10/27 11:23:35;;;;;;;;;;;;;;;;;;5114653;28;19993;-55
2023/10/27 11:26:02;;;;;;;;;;;;;;;;;;5114480;28;19912;-58
2023/10/27 11:28:27;;;;;;;;;;;;;;;;;;5126078;28;19927;-52
2023/10/27 11:30:52;;;;;;;;;;;;;;;;;;5116296;28;19928;-54
2023/10/27 11:33:18;;;;;;;;;;;;;;;;;;5120855;28;19971;-55
2023/10/27 11:35:44;;;;;;;;;;;;;;;;;;5118015;28;19912;-57
2023/10/27 11:38:10;;;;;;;;;;;;;;;;;;5126860;28;19911;-55
2023/10/27 11:40:35;;;;;;;;;;;;;;;;;;5118223;28;20038;-54
2023/10/27 11:43:01;;;;;;;;;;;;;;;;;;5118550;28;19912;-58
2023/10/27 11:45:26;;;;;;;;;;;;;;;;;;5117994;28;19916;-57
2023/10/27 11:47:52;;;;;;;;;;;;;;;;;;5117774;28;19919;-56
2023/10/27 11:50:17;;;;;;;;;;;;;;;;;;5117894;28;19912;-56
2023/10/27 11:52:42;;;;;;;;;;;;;;;;;;5117757;28;19911;-57
2023/10/27 11:55:08;;;;;;;;;;;;;;;;;;5118024;28;19917;-57
2023/10/27 11:57:33;;;;;;;;;;;;;;;;;;5117212;28;19912;-59
2023/10/27 11:59:59;;;;;;;;;;;;;;;;;;5121938;28;19920;-58
2023/10/27 12:02:24;;;;;;;;;;;;;;;;;;5126169;28;19912;-53
2023/10/27 12:04:50;;;;;;;;;;;;;;;;;;5117549;28;19976;-57
2023/10/27 12:07:17;;;;;;;;;;;;;;;;;;5117639;28;19915;-54
2023/10/27 12:09:42;;;;;;;;;;;;;;;;;;5117583;28;19919;-53
2023/10/27 12:12:09;;;;;;;;;;;;;;;;;;5123503;28;19916;-56
2023/10/27 12:14:34;;;;;;;;;;;;;;;;;;5117634;28;19918;-57
2023/10/27 12:16:59;;;;;;;;;;;;;;;;;;5117439;28;19916;-56
2023/10/27 12:19:27;;;;;;;;;;;;;;;;;;5123979;28;19951;-56
2023/10/27 12:21:52;;;;;;;;;;;;;;;;;;5127112;28;19912;-56
2023/10/27 12:24:17;;;;;;;;;;;;;;;;;;5117515;28;19943;-56
2023/10/27 12:26:44;;;;;;;;;;;;;;;;;;5116241;28;19912;-57
2023/10/27 12:29:10;;;;;;;;;;;;;;;;;;5117059;28;19916;-56
2023/10/27 12:31:35;;;;;;;;;;;;;;;;;;5115967;28;19932;-57
2023/10/27 12:34:01;;;;;;;;;;;;;;;;;;5117095;28;19920;-54
2023/10/27 12:36:26;;;;;;;;;;;;;;;;;;5116709;28;19919;-57
2023/10/27 12:38:52;;;;;;;;;;;;;;;;;;5117927;28;19938;-56
2023/10/27 12:41:19;;;;;;;;;;;;;;;;;;5122242;28;19938;-57
2023/10/27 12:43:45;;;;;;;;;;;;;;;;;;5127275;28;19912;-56
2023/10/27 12:46:10;;;;;;;;;;;;;;;;;;5116843;28;19917;-56
2023/10/27 12:48:36;;;;;;;;;;;;;;;;;;5118736;28;19920;-56
2023/10/27 12:51:01;;;;;;;;;;;;;;;;;;5120329;28;19916;-56
2023/10/27 12:53:27;;;;;;;;;;;;;;;;;;5116768;28;19973;-56
2023/10/27 12:55:52;;;;;;;;;;;;;;;;;;5116349;28;19912;-57
2023/10/27 12:58:17;;;;;;;;;;;;;;;;;;5123111;28;19931;-57
2023/10/27 13:00:43;;;;;;;;;;;;;;;;;;5122151;28;19912;-57
2023/10/27 13:03:08;;;;;;;;;;;;;;;;;;5116939;28;19912;-57
2023/10/27 13:05:34;;;;;;;;;;;;;;;;;;5116320;28;19920;-57
2023/10/27 13:08:01;;;;;;;;;;;;;;;;;;5116541;28;19985;-55
2023/10/27 13:10:26;;;;;;;;;;;;;;;;;;5116330;28;19916;-59
2023/10/27 13:12:56;;;;;;;;;;;;;;;;;;5117342;28;19912;-56
2023/10/27 13:15:22;;;;;;;;;;;;;;;;;;5116271;28;19912;-57
2023/10/27 13:17:47;;;;;;;;;;;;;;;;;;5116398;28;19912;-56
2023/10/27 13:20:13;;;;;;;;;;;;;;;;;;5124190;28;19939;-55
2023/10/27 13:22:39;;;;;;;;;;;;;;;;;;5121988;28;19907;-56
2023/10/27 13:25:05;;;;;;;;;;;;;;;;;;5122135;28;19961;-57
2023/10/27 13:27:31;;;;;;;;;;;;;;;;;;5115132;28;19916;-55
2023/10/27 13:30:04;;;;;;;;;;;;;;;;;;5118717;28;20367;-55
2023/10/27 13:32:30;;;;;;;;;;;;;;;;;;5119305;28;19912;-55
2023/10/27 13:34:55;;;;;;;;;;;;;;;;;;5121337;27;19916;-57
2023/10/27 13:37:20;;;;;;;;;;;;;;;;;;5116010;28;19947;-56
2023/10/27 13:39:46;;;;;;;;;;;;;;;;;;5115909;28;19927;-52
2023/10/27 13:42:12;;;;;;;;;;;;;;;;;;5115723;28;19975;-53
2023/10/27 13:44:38;;;;;;;;;;;;;;;;;;5121161;28;19908;-53
2023/10/27 13:47:03;;;;;;;;;;;;;;;;;;5115856;28;19933;-56
2023/10/27 13:49:29;;;;;;;;;;;;;;;;;;5115319;28;19916;-57
2023/10/27 13:51:54;;;;;;;;;;;;;;;;;;5115811;28;19912;-58
2023/10/27 13:54:21;;;;;;;;;;;;;;;;;;5116579;28;20233;-57
2023/10/27 13:56:46;;;;;;;;;;;;;;;;;;5115646;28;19983;-58
2023/10/27 13:59:12;;;;;;;;;;;;;;;;;;5115390;28;20049;-57
2023/10/27 14:01:39;;;;;;;;;;;;;;;;;;5115557;28;19942;-57
2023/10/27 14:04:06;;;;;;;;;;;;;;;;;;5127286;28;19918;-57
2023/10/27 14:06:32;;;;;;;;;;;;;;;;;;5115423;28;19912;-56
2023/10/27 14:08:58;;;;;;;;;;;;;;;;;;5119360;28;19947;-56
2023/10/27 14:11:24;;;;;;;;;;;;;;;;;;5115039;28;19938;-56
2023/10/27 14:13:49;;;;;;;;;;;;;;;;;;5115030;28;19912;-56
2023/10/27 14:16:16;;;;;;;;;;;;;;;;;;5115481;28;19916;-53
2023/10/27 14:18:42;;;;;;;;;;;;;;;;;;5115684;28;19991;-56
2023/10/27 14:21:07;;;;;;;;;;;;;;;;;;5115368;28;19912;-57
2023/10/27 14:23:32;;;;;;;;;;;;;;;;;;5114776;28;19931;-57
2023/10/27 14:25:58;;;;;;;;;;;;;;;;;;5115002;28;19938;-53
2023/10/27 14:28:24;;;;;;;;;;;;;;;;;;5114777;28;19923;-54
2023/10/27 14:30:49;;;;;;;;;;;;;;;;;;5114837;28;19975;-57
2023/10/27 14:33:15;;;;;;;;;;;;;;;;;;5118146;28;20135;-53
2023/10/27 14:35:40;;;;;;;;;;;;;;;;;;5114787;28;19932;-57
2023/10/27 14:38:06;;;;;;;;;;;;;;;;;;5114743;28;19912;-55
2023/10/27 14:40:31;;;;;;;;;;;;;;;;;;5123447;28;19991;-53
2023/10/27 14:43:00;;;;;;;;;;;;;;;;;;5115252;28;19952;-56
2023/10/27 14:45:26;;;;;;;;;;;;;;;;;;5114847;28;19916;-56
2023/10/27 14:47:51;;;;;;;;;;;;;;;;;;5114714;28;19912;-57
2023/10/27 14:50:17;;;;;;;;;;;;;;;;;;5113925;28;19936;-56
2023/10/27 14:52:42;;;;;;;;;;;;;;;;;;5114926;28;19913;-57
2023/10/27 14:55:08;;;;;;;;;;;;;;;;;;5125594;28;19987;-56
2023/10/27 14:57:33;;;;;;;;;;;;;;;;;;5114605;28;19923;-56
2023/10/27 14:59:58;;;;;;;;;;;;;;;;;;5114561;28;19923;-56
2023/10/27 15:02:25;;;;;;;;;;;;;;;;;;5114421;28;19912;-55
2023/10/27 15:04:51;;;;;;;;;;;;;;;;;;5122273;28;19919;-57
2023/10/27 15:07:16;;;;;;;;;;;;;;;;;;5118684;28;19912;-56
2023/10/27 15:09:42;;;;;;;;;;;;;;;;;;5118767;28;19927;-58
2023/10/27 15:12:09;;;;;;;;;;;;;;;;;;5125315;28;19938;-55
2023/10/27 15:14:35;;;;;;;;;;;;;;;;;;5114709;28;19913;-55
2023/10/27 15:17:01;;;;;;;;;;;;;;;;;;5118320;28;19912;-55
2023/10/27 15:19:26;;;;;;;;;;;;;;;;;;5121502;28;19924;-56
2023/10/27 15:21:51;;;;;;;;;;;;;;;;;;5124343;28;19912;-54
2023/10/27 15:24:17;;;;;;;;;;;;;;;;;;5119287;28;19912;-55
2023/10/27 15:26:44;;;;;;;;;;;;;;;;;;5118485;28;19958;-57
2023/10/27 15:29:10;;;;;;;;;;;;;;;;;;5126456;28;19916;-56
2023/10/27 15:31:37;;;;;;;;;;;;;;;;;;5124269;28;19916;-57
2023/10/27 15:34:02;;;;;;;;;;;;;;;;;;5123623;28;19937;-54
2023/10/27 15:36:28;;;;;;;;;;;;;;;;;;5123789;28;19912;-55
2023/10/27 15:38:56;;;;;;;;;;;;;;;;;;5118494;28;19912;-56
2023/10/27 15:41:22;;;;;;;;;;;;;;;;;;5120161;28;19915;-57
2023/10/27 15:43:48;;;;;;;;;;;;;;;;;;5120534;28;19920;-58
2023/10/27 15:46:14;;;;;;;;;;;;;;;;;;5122930;28;19916;-56
2023/10/27 15:48:39;;;;;;;;;;;;;;;;;;5119679;28;19923;-54
2023/10/27 15:51:06;;;;;;;;;;;;;;;;;;5123416;28;19980;-55
2023/10/27 15:53:32;;;;;;;;;;;;;;;;;;5117986;28;19916;-57
2023/10/27 15:55:57;;;;;;;;;;;;;;;;;;5121296;28;19969;-55
2023/10/27 15:58:23;;;;;;;;;;;;;;;;;;5128664;28;19919;-57
2023/10/27 16:00:49;;;;;;;;;;;;;;;;;;5121706;28;19912;-58
2023/10/27 16:03:14;;;;;;;;;;;;;;;;;;5117971;28;19916;-57
2023/10/27 16:05:40;;;;;;;;;;;;;;;;;;5104729;28;20005;-57
2023/10/27 16:08:05;;;;;;;;;;;;;;;;;;5117582;28;19920;-56
2023/10/27 16:10:31;;;;;;;;;;;;;;;;;;5123015;28;19951;-57
2023/10/27 16:12:56;;;;;;;;;;;;;;;;;;5117602;28;19989;-58
2023/10/27 16:15:22;;;;;;;;;;;;;;;;;;5131026;28;19911;-56
2023/10/27 16:17:47;;;;;;;;;;;;;;;;;;5117126;28;20050;-56
2023/10/27 16:20:13;;;;;;;;;;;;;;;;;;5120638;28;19912;-55
2023/10/27 16:22:40;;;;;;;;;;;;;;;;;;5117704;28;19919;-58
2023/10/27 16:25:07;;;;;;;;;;;;;;;;;;5127895;28;19918;-58
2023/10/27 16:27:32;;;;;;;;;;;;;;;;;;5117333;28;19923;-57
2023/10/27 16:29:58;;;;;;;;;;;;;;;;;;5117223;28;19916;-55
2023/10/27 16:32:23;;;;;;;;;;;;;;;;;;5117348;28;19947;-57
2023/10/27 16:34:49;;;;;;;;;;;;;;;;;;5124092;28;19919;-54